createdAt,value
2019-03-04T00:01:12.536Z,49.23
2019-03-04T00:03:45.388Z,49.27
2019-03-04T00:06:17.035Z,49.31
2019-03-04T00:08:48.697Z,49.47
2019-03-04T00:11:20.472Z,49.61
2019-03-04T00:13:52.540Z,49.75
2019-03-04T00:16:25.743Z,49.77
2019-03-04T00:18:58.090Z,49.66
2019-03-04T00:21:31.107Z,49.65
2019-03-04T00:24:04.309Z,49.65
2019-03-04T00:26:36.024Z,49.72
2019-03-04T00:29:08.065Z,49.75
2019-03-04T00:31:39.743Z,49.79
2019-03-04T00:34:12.294Z,49.85
2019-03-04T00:36:43.976Z,49.89
2019-03-04T00:39:15.674Z,49.87
2019-03-04T00:41:48.607Z,49.86
2019-03-04T00:44:20.932Z,49.81
2019-03-04T00:46:53.580Z,49.71
2019-03-04T00:49:27.084Z,49.61
2019-03-04T00:51:59.154Z,49.52
2019-03-04T00:54:32.518Z,49.50
2019-03-04T00:57:04.908Z,49.56
2019-03-04T00:59:37.323Z,49.74
2019-03-04T01:02:09.172Z,49.87
2019-03-04T01:04:40.961Z,50.04
2019-03-04T01:07:14.377Z,50.18
2019-03-04T01:09:46.175Z,50.29
2019-03-04T01:12:19.367Z,50.45
2019-03-04T01:14:53.273Z,50.63
2019-03-04T01:17:25.551Z,50.78
2019-03-04T01:19:58.273Z,50.90
2019-03-04T01:22:29.922Z,50.94
2019-03-04T01:25:03.465Z,50.93
2019-03-04T01:27:37.498Z,50.90
2019-03-04T01:30:23.720Z,50.85
2019-03-04T01:32:55.977Z,50.84
2019-03-04T01:35:27.639Z,50.76
2019-03-04T01:37:59.860Z,50.70
2019-03-04T01:40:32.680Z,50.65
2019-03-04T01:43:05.721Z,50.66
2019-03-04T01:45:39.764Z,50.63
2019-03-04T01:48:12.690Z,50.61
2019-03-04T01:50:45.263Z,50.57
2019-03-04T01:53:17.801Z,50.57
2019-03-04T01:55:50.694Z,50.55
2019-03-04T01:58:23.356Z,50.54
2019-03-04T02:00:57.303Z,50.52
2019-03-04T02:03:39.660Z,50.52
2019-03-04T02:06:11.374Z,50.53
2019-03-04T02:08:43.141Z,50.55
2019-03-04T02:11:15.336Z,50.62
2019-03-04T02:13:47.059Z,50.64
2019-03-04T02:16:18.839Z,50.64
2019-03-04T02:18:51.799Z,50.63
2019-03-04T02:21:24.824Z,50.63
2019-03-04T02:23:56.986Z,50.59
2019-03-04T02:26:31.602Z,50.56
2019-03-04T02:29:04.839Z,50.54
2019-03-04T02:31:38.364Z,50.55
2019-03-04T02:34:11.358Z,50.59
2019-03-04T02:36:44.103Z,50.75
2019-03-04T02:39:16.699Z,50.82
2019-03-04T02:41:49.047Z,50.92
2019-03-04T02:44:22.255Z,51.04
2019-03-04T02:46:54.963Z,51.10
2019-03-04T02:49:27.716Z,51.15
2019-03-04T02:51:59.913Z,51.22
2019-03-04T02:54:31.680Z,51.25
2019-03-04T02:57:03.888Z,51.28
2019-03-04T02:59:35.783Z,51.27
2019-03-04T03:02:09.203Z,51.27
2019-03-04T03:04:41.643Z,51.30
2019-03-04T03:07:14.433Z,51.32
2019-03-04T03:09:46.089Z,51.33
2019-03-04T03:12:17.712Z,51.31
2019-03-04T03:14:49.653Z,51.30
2019-03-04T03:17:21.258Z,51.27
2019-03-04T03:19:55.388Z,51.27
2019-03-04T03:22:27.011Z,51.27
2019-03-04T03:24:59.073Z,51.31
2019-03-04T03:27:30.860Z,51.34
2019-03-04T03:30:02.562Z,51.38
2019-03-04T03:32:34.688Z,51.44
2019-03-04T03:35:08.755Z,51.41
2019-03-04T03:37:41.453Z,51.36
2019-03-04T03:40:15.356Z,51.29
2019-03-04T03:42:48.321Z,51.22
2019-03-04T03:45:21.021Z,51.16
2019-03-04T03:47:53.922Z,51.07
2019-03-04T03:50:28.741Z,51.05
2019-03-04T03:53:00.718Z,51.01
2019-03-04T03:55:34.104Z,50.96
2019-03-04T03:58:06.136Z,50.88
2019-03-04T04:00:38.135Z,50.81
2019-03-04T04:03:09.836Z,50.64
2019-03-04T04:05:42.460Z,50.58
2019-03-04T04:08:15.283Z,50.54
2019-03-04T04:10:50.179Z,50.54
2019-03-04T04:13:21.900Z,50.53
2019-03-04T04:15:53.817Z,50.51
2019-03-04T04:18:28.035Z,50.49
2019-03-04T04:21:00.057Z,50.43
2019-03-04T04:23:31.696Z,50.39
2019-03-04T04:26:05.647Z,50.33
2019-03-04T04:28:38.170Z,50.27
2019-03-04T04:31:10.925Z,50.16
2019-03-04T04:33:43.572Z,50.09
2019-03-04T04:36:15.401Z,50.05
2019-03-04T04:38:47.427Z,50.08
2019-03-04T04:41:19.270Z,50.07
2019-03-04T04:43:51.741Z,50.03
2019-03-04T04:46:51.680Z,50.04
2019-03-04T04:49:25.031Z,50.09
2019-03-04T04:51:57.651Z,50.26
2019-03-04T04:54:29.580Z,50.40
2019-03-04T04:57:01.212Z,50.39
2019-03-04T04:59:33.961Z,50.34
2019-03-04T05:02:05.841Z,50.33
2019-03-04T05:04:39.536Z,50.32
2019-03-04T05:07:11.178Z,50.34
2019-03-04T05:09:43.067Z,50.39
2019-03-04T05:12:16.378Z,50.47
2019-03-04T05:14:49.038Z,50.47
2019-03-04T05:17:20.823Z,50.41
2019-03-04T05:19:54.005Z,50.35
2019-03-04T05:22:27.231Z,50.38
2019-03-04T05:24:59.019Z,50.42
2019-03-04T05:27:30.899Z,50.49
2019-03-04T05:30:03.276Z,50.51
2019-03-04T05:32:35.302Z,50.53
2019-03-04T05:35:07.045Z,50.62
2019-03-04T05:37:39.535Z,50.74
2019-03-04T05:40:14.481Z,50.83
2019-03-04T05:42:46.616Z,50.85
2019-03-04T05:45:20.165Z,50.91
2019-03-04T05:47:52.400Z,50.95
2019-03-04T05:50:24.973Z,51.00
2019-03-04T05:52:57.133Z,50.99
2019-03-04T05:55:29.012Z,50.95
2019-03-04T05:58:00.683Z,50.91
2019-03-04T06:00:38.313Z,50.85
2019-03-04T06:03:12.223Z,50.86
2019-03-04T06:05:43.907Z,50.89
2019-03-04T06:08:16.064Z,50.95
2019-03-04T06:10:48.024Z,51.01
2019-03-04T06:13:20.300Z,51.06
2019-03-04T06:15:53.115Z,51.08
2019-03-04T06:18:24.815Z,51.07
2019-03-04T06:20:56.926Z,51.08
2019-03-04T06:23:29.188Z,51.15
2019-03-04T06:26:01.096Z,51.26
2019-03-04T06:28:33.151Z,51.27
2019-03-04T06:31:05.002Z,51.28
2019-03-04T06:33:36.628Z,51.29
2019-03-04T06:36:08.577Z,51.37
2019-03-04T06:38:40.667Z,51.46
2019-03-04T06:41:12.366Z,51.52
2019-03-04T06:43:44.257Z,51.47
2019-03-04T06:46:18.682Z,51.33
2019-03-04T06:48:50.875Z,51.14
2019-03-04T06:51:43.431Z,50.98
2019-03-04T06:55:00.754Z,50.82
2019-03-04T06:57:43.610Z,50.61
2019-03-04T07:00:58.156Z,50.41
2019-03-04T07:03:34.307Z,50.05
2019-03-04T07:06:06.187Z,49.84
2019-03-04T07:09:12.941Z,49.66
2019-03-04T07:11:52.254Z,49.36
2019-03-04T07:14:24.227Z,49.40
2019-03-04T07:16:56.012Z,49.12
2019-03-04T07:19:34.568Z,48.98
2019-03-04T07:22:07.827Z,48.79
2019-03-04T07:24:39.577Z,48.48
2019-03-04T07:27:13.072Z,48.35
2019-03-04T07:29:44.818Z,48.20
2019-03-04T07:32:16.989Z,48.17
2019-03-04T07:34:49.071Z,48.33
2019-03-04T07:37:20.706Z,48.71
2019-03-04T07:39:53.132Z,49.37
2019-03-04T07:42:25.024Z,49.82
2019-03-04T07:44:57.560Z,49.94
2019-03-04T07:47:29.594Z,49.87
2019-03-04T07:50:02.624Z,49.72
2019-03-04T07:52:34.592Z,50.60
2019-03-04T07:55:07.733Z,50.45
2019-03-04T07:57:39.774Z,50.16
2019-03-04T08:00:12.912Z,50.16
2019-03-04T08:02:44.832Z,50.10
2019-03-04T08:05:18.354Z,50.10
2019-03-04T08:07:52.646Z,50.00
2019-03-04T08:11:11.780Z,49.79
2019-03-04T08:13:49.855Z,49.73
2019-03-04T08:16:21.524Z,49.63
2019-03-04T08:18:53.645Z,49.64
2019-03-04T08:21:25.764Z,49.55
2019-03-04T08:23:58.890Z,49.43
2019-03-04T08:26:30.707Z,49.43
2019-03-04T08:29:04.330Z,49.33
2019-03-04T08:31:38.209Z,49.28
2019-03-04T08:34:10.180Z,49.23
2019-03-04T08:36:42.533Z,49.10
2019-03-04T08:39:14.839Z,48.93
2019-03-04T08:41:47.186Z,48.75
2019-03-04T08:44:18.903Z,48.77
2019-03-04T08:46:50.988Z,48.70
2019-03-04T08:49:24.228Z,48.70
2019-03-04T08:51:57.289Z,48.70
2019-03-04T08:54:29.799Z,48.73
2019-03-04T08:57:04.192Z,48.66
2019-03-04T08:59:34.963Z,48.68
2019-03-04T09:02:09.348Z,48.68
2019-03-04T09:04:41.063Z,48.60
2019-03-04T09:07:13.336Z,48.63
2019-03-04T09:09:45.672Z,48.68
2019-03-04T09:12:18.522Z,48.42
2019-03-04T09:14:51.341Z,48.40
2019-03-04T09:17:23.851Z,48.47
2019-03-04T09:19:55.916Z,48.44
2019-03-04T09:22:28.688Z,48.44
2019-03-04T09:25:01.020Z,48.38
2019-03-04T09:27:34.127Z,48.41
2019-03-04T09:30:07.228Z,48.37
2019-03-04T09:32:38.994Z,48.32
2019-03-04T09:35:12.365Z,48.20
2019-03-04T09:37:44.160Z,48.21
2019-03-04T09:40:17.466Z,48.16
2019-03-04T09:42:50.822Z,48.13
2019-03-04T09:45:22.834Z,47.95
2019-03-04T09:47:55.206Z,47.94
2019-03-04T09:50:26.951Z,47.73
2019-03-04T09:52:58.652Z,47.62
2019-03-04T09:55:31.004Z,47.60
2019-03-04T09:58:02.787Z,47.59
2019-03-04T10:01:23.184Z,47.47
2019-03-04T10:05:02.561Z,47.37
2019-03-04T10:07:56.712Z,47.39
2019-03-04T10:11:21.263Z,47.31
2019-03-04T10:14:41.662Z,47.00
2019-03-04T10:17:39.315Z,46.93
2019-03-04T10:20:51.631Z,46.91
2019-03-04T10:24:19.941Z,46.78
2019-03-04T10:27:31.951Z,46.48
2019-03-04T10:30:58.959Z,46.37
2019-03-04T10:34:51.952Z,46.82
2019-03-04T10:38:33.101Z,47.29
2019-03-04T10:41:48.523Z,47.87
2019-03-04T10:45:24.278Z,48.21
2019-03-04T10:47:56.301Z,48.42
2019-03-04T10:50:29.024Z,48.62
2019-03-04T10:53:00.789Z,48.76
2019-03-04T10:55:41.612Z,49.06
2019-03-04T10:58:07.707Z,49.30
2019-03-04T11:00:40.502Z,49.68
2019-03-04T11:03:12.420Z,49.99
2019-03-04T11:05:45.987Z,50.33
2019-03-04T11:08:18.146Z,50.45
2019-03-04T11:10:50.293Z,50.71
2019-03-04T11:13:22.481Z,50.95
2019-03-04T11:15:54.482Z,51.10
2019-03-04T11:18:26.371Z,51.09
2019-03-04T11:20:58.784Z,51.17
2019-03-04T11:23:31.119Z,50.85
2019-03-04T11:26:03.063Z,50.67
2019-03-04T11:28:35.300Z,50.58
2019-03-04T11:31:07.414Z,50.53
2019-03-04T11:33:39.296Z,50.51
2019-03-04T11:36:11.727Z,50.46
2019-03-04T11:38:47.154Z,50.33
2019-03-04T11:41:21.776Z,50.18
2019-03-04T11:43:53.472Z,50.09
2019-03-04T11:46:26.136Z,50.02
2019-03-04T11:48:58.424Z,49.82
2019-03-04T11:51:30.082Z,49.76
2019-03-04T11:54:04.180Z,49.63
2019-03-04T11:56:35.833Z,49.25
2019-03-04T11:59:07.571Z,49.09
2019-03-04T12:01:46.037Z,48.87
2019-03-04T12:04:19.530Z,48.80
2019-03-04T12:06:52.828Z,48.75
2019-03-04T12:09:24.588Z,48.60
2019-03-04T12:11:57.379Z,48.36
2019-03-04T12:14:29.454Z,47.95
2019-03-04T12:17:01.265Z,47.92
2019-03-04T12:19:33.581Z,47.79
2019-03-04T12:22:06.189Z,47.60
2019-03-04T12:24:40.447Z,47.56
2019-03-04T12:27:13.556Z,47.45
2019-03-04T12:29:45.980Z,47.41
2019-03-04T12:32:29.032Z,47.24
2019-03-04T12:35:01.208Z,47.06
2019-03-04T12:37:34.530Z,47.09
2019-03-04T12:40:09.293Z,47.03
2019-03-04T12:42:41.265Z,46.77
2019-03-04T12:45:15.488Z,46.86
2019-03-04T12:47:49.257Z,46.71
2019-03-04T12:50:24.823Z,46.62
2019-03-04T12:52:57.554Z,46.68
2019-03-04T12:55:31.242Z,46.57
2019-03-04T12:58:03.605Z,46.03
2019-03-04T13:00:36.527Z,46.08
2019-03-04T13:03:17.318Z,46.00
2019-03-04T13:05:49.722Z,46.01
2019-03-04T13:08:21.758Z,45.91
2019-03-04T13:10:53.990Z,45.67
2019-03-04T13:13:26.664Z,45.40
2019-03-04T13:16:00.595Z,45.44
2019-03-04T13:18:32.716Z,45.54
2019-03-04T13:21:04.467Z,45.70
2019-03-04T13:23:36.114Z,45.52
2019-03-04T13:26:09.623Z,45.58
2019-03-04T13:28:42.421Z,45.52
2019-03-04T13:31:14.256Z,45.74
2019-03-04T13:33:46.005Z,45.77
2019-03-04T13:36:19.440Z,45.93
2019-03-04T13:38:51.196Z,45.94
2019-03-04T13:41:22.905Z,46.00
2019-03-04T13:43:55.444Z,46.09
2019-03-04T13:46:27.084Z,46.22
2019-03-04T13:48:59.125Z,46.22
2019-03-04T13:51:31.080Z,46.19
2019-03-04T13:54:03.046Z,46.11
2019-03-04T13:56:35.322Z,46.01
2019-03-04T13:59:07.941Z,45.58
2019-03-04T14:01:39.607Z,45.43
2019-03-04T14:04:11.639Z,45.33
2019-03-04T14:06:43.391Z,45.18
2019-03-04T14:09:19.418Z,45.11
2019-03-04T14:11:52.153Z,44.90
2019-03-04T14:14:26.075Z,44.36
2019-03-04T14:16:57.854Z,44.15
2019-03-04T14:19:29.775Z,44.24
2019-03-04T14:22:01.813Z,44.00
2019-03-04T14:24:34.510Z,44.13
2019-03-04T14:27:06.261Z,44.08
2019-03-04T14:29:38.868Z,43.85
2019-03-04T14:32:10.555Z,43.58
2019-03-04T14:34:42.252Z,43.70
2019-03-04T14:37:14.227Z,43.74
2019-03-04T14:39:45.975Z,43.67
2019-03-04T14:42:17.707Z,43.69
2019-03-04T14:44:50.035Z,43.40
2019-03-04T14:47:22.233Z,42.99
2019-03-04T14:49:54.056Z,42.38
2019-03-04T14:52:25.760Z,43.48
2019-03-04T14:54:57.651Z,44.76
2019-03-04T14:57:29.327Z,46.43
2019-03-04T15:00:01.653Z,47.43
2019-03-04T15:02:33.324Z,48.49
2019-03-04T15:05:05.618Z,49.14
2019-03-04T15:07:37.325Z,50.16
2019-03-04T15:10:09.225Z,50.30
2019-03-04T15:12:42.129Z,50.81
2019-03-04T15:15:15.003Z,50.94
2019-03-04T15:17:46.909Z,51.11
2019-03-04T15:20:20.853Z,51.14
2019-03-04T15:22:52.928Z,51.25
2019-03-04T15:25:28.979Z,51.37
2019-03-04T15:28:15.742Z,51.42
2019-03-04T15:30:49.771Z,51.52
2019-03-04T15:33:21.579Z,51.81
2019-03-04T15:35:53.267Z,51.89
2019-03-04T15:38:25.215Z,51.94
2019-03-04T15:40:57.077Z,52.00
2019-03-04T15:43:30.470Z,52.05
2019-03-04T15:46:03.145Z,52.00
2019-03-04T15:48:35.451Z,51.97
2019-03-04T15:51:07.274Z,51.94
2019-03-04T15:53:39.131Z,51.92
2019-03-04T15:56:11.319Z,51.90
2019-03-04T15:58:43.079Z,51.91
2019-03-04T16:01:15.595Z,51.85
2019-03-04T16:03:47.462Z,51.92
2019-03-04T16:06:19.146Z,52.02
2019-03-04T16:08:51.013Z,52.12
2019-03-04T16:11:23.111Z,52.39
2019-03-04T16:13:56.182Z,52.46
2019-03-04T16:16:28.055Z,52.65
2019-03-04T16:18:59.880Z,52.78
2019-03-04T16:21:31.532Z,52.83
2019-03-04T16:24:03.257Z,52.84
2019-03-04T16:26:35.514Z,53.04
2019-03-04T16:29:07.524Z,53.12
2019-03-04T16:31:39.215Z,53.34
2019-03-04T16:34:11.219Z,53.45
2019-03-04T16:36:42.909Z,53.65
2019-03-04T16:39:14.571Z,53.54
2019-03-04T16:41:46.314Z,53.68
2019-03-04T16:44:18.361Z,53.78
2019-03-04T16:46:50.489Z,53.81
2019-03-04T16:49:22.468Z,53.85
2019-03-04T16:51:54.124Z,53.86
2019-03-04T16:54:26.102Z,53.84
2019-03-04T16:56:57.815Z,53.87
2019-03-04T16:59:29.487Z,53.81
2019-03-04T17:02:01.370Z,53.85
2019-03-04T17:04:33.487Z,53.78
2019-03-04T17:07:05.887Z,53.74
2019-03-04T17:09:37.769Z,53.70
2019-03-04T17:12:10.476Z,53.70
2019-03-04T17:14:42.222Z,53.67
2019-03-04T17:17:15.377Z,53.71
2019-03-04T17:19:47.403Z,53.76
2019-03-04T17:22:19.463Z,53.85
2019-03-04T17:24:51.282Z,53.93
2019-03-04T17:27:22.992Z,53.95
2019-03-04T17:29:54.677Z,54.01
2019-03-04T17:32:26.340Z,54.06
2019-03-04T17:34:58.140Z,54.07
2019-03-04T17:37:29.792Z,54.03
2019-03-04T17:40:01.689Z,54.00
2019-03-04T17:42:33.522Z,53.96
2019-03-04T17:45:05.238Z,53.99
2019-03-04T17:47:37.524Z,53.98
2019-03-04T17:50:12.593Z,54.01
2019-03-04T17:52:44.388Z,54.03
2019-03-04T17:55:17.436Z,54.06
2019-03-04T17:57:50.719Z,54.04
2019-03-04T18:00:22.551Z,54.06
2019-03-04T18:02:54.272Z,53.99
2019-03-04T18:05:26.343Z,53.90
2019-03-04T18:07:58.264Z,53.83
2019-03-04T18:10:30.453Z,53.80
2019-03-04T18:13:02.608Z,53.86
2019-03-04T18:15:36.171Z,54.73
2019-03-04T18:18:07.912Z,54.41
2019-03-04T18:20:39.651Z,54.36
2019-03-04T18:23:11.693Z,54.34
2019-03-04T18:25:51.452Z,54.47
2019-03-04T18:28:41.181Z,54.45
2019-03-04T18:31:43.854Z,54.45
2019-03-04T18:35:25.017Z,54.47
2019-03-04T18:38:46.681Z,54.34
2019-03-04T18:41:43.574Z,54.19
2019-03-04T18:45:18.607Z,54.17
2019-03-04T18:48:59.759Z,54.16
2019-03-04T18:51:33.311Z,54.12
2019-03-04T18:54:15.491Z,54.00
2019-03-04T18:56:47.611Z,54.09
2019-03-04T18:59:20.312Z,54.12
2019-03-04T19:01:52.367Z,54.18
2019-03-04T19:04:24.096Z,54.17
2019-03-04T19:06:55.779Z,54.18
2019-03-04T19:09:27.626Z,54.22
2019-03-04T19:11:59.336Z,54.22
2019-03-04T19:14:31.156Z,54.29
2019-03-04T19:17:02.852Z,54.25
2019-03-04T19:19:34.616Z,54.24
2019-03-04T19:22:06.592Z,54.26
2019-03-04T19:24:38.498Z,54.21
2019-03-04T19:27:10.216Z,54.23
2019-03-04T19:29:42.076Z,54.25
2019-03-04T19:32:13.852Z,54.28
2019-03-04T19:34:45.551Z,54.36
2019-03-04T19:37:17.491Z,54.38
2019-03-04T19:39:49.453Z,54.39
2019-03-04T19:42:21.227Z,54.45
2019-03-04T19:44:53.064Z,54.54
2019-03-04T19:47:25.344Z,54.57
2019-03-04T19:49:57.133Z,54.65
2019-03-04T19:52:28.932Z,54.66
2019-03-04T19:55:00.755Z,54.72
2019-03-04T19:57:32.681Z,54.74
2019-03-04T20:00:05.303Z,54.81
2019-03-04T20:02:37.100Z,54.77
2019-03-04T20:05:09.135Z,54.80
2019-03-04T20:07:41.313Z,54.80
2019-03-04T20:10:13.803Z,54.86
2019-03-04T20:12:45.651Z,54.77
2019-03-04T20:15:22.736Z,54.77
2019-03-04T20:17:56.589Z,54.77
2019-03-04T20:20:28.460Z,54.86
2019-03-04T20:23:00.282Z,54.90
2019-03-04T20:25:32.118Z,55.02
2019-03-04T20:28:03.911Z,55.15
2019-03-04T20:30:35.690Z,55.26
2019-03-04T20:33:07.594Z,55.35
2019-03-04T20:35:39.550Z,55.44
2019-03-04T20:38:11.662Z,55.50
2019-03-04T20:40:43.449Z,55.55
2019-03-04T20:43:15.395Z,55.54
2019-03-04T20:45:47.331Z,55.52
2019-03-04T20:48:19.883Z,55.51
2019-03-04T20:50:51.697Z,55.54
2019-03-04T20:53:23.900Z,55.57
2019-03-04T20:55:55.751Z,55.60
2019-03-04T20:58:27.703Z,55.87
2019-03-04T21:00:59.445Z,56.10
2019-03-04T21:03:35.147Z,56.27
2019-03-04T21:06:05.642Z,56.36
2019-03-04T21:08:37.370Z,56.42
2019-03-04T21:11:09.676Z,56.57
2019-03-04T21:13:42.003Z,56.62
2019-03-04T21:16:13.714Z,56.76
2019-03-04T21:18:45.449Z,56.82
2019-03-04T21:21:17.529Z,57.05
2019-03-04T21:23:49.718Z,57.07
2019-03-04T21:26:28.015Z,57.25
2019-03-04T21:29:43.931Z,57.28
2019-03-04T21:33:08.039Z,57.31
2019-03-04T21:36:37.157Z,57.35
2019-03-04T21:39:09.753Z,57.29
2019-03-04T21:42:06.407Z,57.31
2019-03-04T21:45:25.782Z,57.41
2019-03-04T21:48:10.099Z,57.42
2019-03-04T21:51:25.961Z,57.33
2019-03-04T21:53:57.684Z,57.51
2019-03-04T21:57:17.226Z,57.55
2019-03-04T21:59:49.099Z,57.70
2019-03-04T22:02:59.090Z,57.70
2019-03-04T22:05:31.116Z,57.81
2019-03-04T22:08:02.759Z,57.78
2019-03-04T22:10:34.711Z,57.86
2019-03-04T22:13:06.769Z,57.89
2019-03-04T22:15:39.585Z,57.94
2019-03-04T22:18:13.087Z,57.97
2019-03-04T22:20:46.515Z,58.02
2019-03-04T22:23:18.319Z,58.06
2019-03-04T22:25:49.983Z,58.08
2019-03-04T22:28:21.716Z,58.03
2019-03-04T22:30:53.427Z,58.00
2019-03-04T22:33:27.966Z,58.03
2019-03-04T22:35:59.791Z,58.05
2019-03-04T22:39:10.775Z,58.11
2019-03-04T22:41:42.791Z,58.06
2019-03-04T22:44:14.499Z,58.04
2019-03-04T22:46:47.154Z,58.07
2019-03-04T22:49:19.454Z,57.97
2019-03-04T22:52:03.916Z,57.90
2019-03-04T22:54:35.622Z,57.79
2019-03-04T22:57:07.444Z,57.72
2019-03-04T22:59:39.096Z,57.62
2019-03-04T23:02:12.107Z,57.56
2019-03-04T23:04:54.541Z,57.48
2019-03-04T23:07:36.210Z,57.50
2019-03-04T23:10:32.679Z,57.56
2019-03-04T23:13:46.595Z,57.47
2019-03-04T23:16:22.659Z,57.42
2019-03-04T23:18:54.676Z,57.31
2019-03-04T23:21:26.745Z,57.24
2019-03-04T23:23:58.564Z,57.14
2019-03-04T23:26:30.174Z,57.02
2019-03-04T23:29:01.826Z,56.92
2019-03-04T23:31:33.491Z,56.86
2019-03-04T23:34:05.429Z,56.87
2019-03-04T23:36:37.084Z,56.86
2019-03-04T23:39:09.934Z,56.83
2019-03-04T23:41:41.570Z,56.78
2019-03-04T23:44:13.193Z,56.72
2019-03-04T23:46:44.814Z,56.61
2019-03-04T23:49:16.836Z,56.49
2019-03-04T23:51:48.719Z,56.40
2019-03-04T23:54:20.430Z,56.34
2019-03-04T23:56:52.085Z,56.25
2019-03-04T23:59:23.760Z,56.12
